Pagrindinis puslapis
METAR-TAF:

METAR-TAF

Oro uostai :

Ndžamena, Čadas

platuma: 12-08N, ilguma: 015-02E, Aukštis: 295 m

Dabartinis oras

Ataskaita buvo paskelbta 1 valandą ir 14 minutes, ne 11:00 UTC
Vėjas 1 kt nuo kintamojo kryptimis
Temperatūra 32°C
Drėgmė 52%
Slėgis 1010 hPa
Matomumas 10 km arba daugiau
nėra debesų žemiau 1500 m ir nėra kamuolinių lietaus debesų

METAR: FTTJ 171100Z VRB01KT CAVOK 32/21 Q1010 NOSIG

Laikas: 13:14 (12:14 UTC)

Prognozė

Ataskaita buvo paskelbta 1 valandą ir 14 minutes, ne 11:00 UTC
Prognozė galioja nuo 17 metu 12 UTC su 18 metu 18 UTC
Vėjas 4 kt nuo kintamojo kryptimis
Matomumas 10 km arba daugiau
Mažai debesys ne aukštis 3000 ft
Mažai debesys ne aukštis 4000 ft, Liūtiniai kamuoliniai debesys.
Tikimybė 30% :
Laikinai
nuo 17 metu 13 UTC su 17 metu 18 UTC
Matomumas: 4000 m
perkūnija, lietus
Laikinai
nuo 18 metu 14 UTC su 18 metu 18 UTC
Matomumas: 4000 m
perkūnija, lietus

TAF: FTTJ 171100Z 1712/1818 VRB04KT 9999 FEW030 FEW040CB PROB30 TEMPO 1713/1718 4000 TSRA TEMPO 1814/1818 4000 TSRA

Orai ataskaitas ir orų prognozės (METAR, TAF).

turimą stotys yra geltonos ir raudonos taškus žemėlapyje.

Perkelti pele per norėdami pamatyti stoties vardą.

Tada spustelėkite, norėdami matyti oro stebėjimo ir prognozės.

Norėdami pakeisti žemėlapį: spustelėkite ant žalios mygtukų su juodo kryžiaus žemyn,; žalią mygtuką su brūkšneliu, jei norite nutolinti; arba žalių rodyklių gretimoms žemėlapius.


METAR-TAF: